Terminal Aerodrome Forecast
Issued by NWS

Home | Current Version | Previous Version | Text Only | Print | Product List | Glossary On
Versions: 1 2 3 4 5 6 7 8 9 10 11 12 13 14 15 16 17 18 19 20 21 22 23 24 25 26 27 28 29 30 31 32 33 34 35 36 37 38 39 40 41 42 43 44 45 46 47 48 49 50
096
FTUS46 KEKA 172106 AAB
TAFACV
TAF AMD
KACV 172106Z 1721/1818 19012G20KT P6SM -RA SCT025 BKN035 OVC060
      WS015/19035KT
      TEMPO 1723/1802 5SM -RA BR SCT009 OVC025
     FM180200 19006KT 3/4SM RA BR SCT008 OVC012
     FM180800 18007KT P6SM VCSH SCT015 SCT025
     FM181200 18008KT 1SM -RA BR OVC015=

USA.gov is the U.S. government's official web portal to all federal, state and local government web resources and services.